Time;durP1;ratioP1;P1;durP2;ratioP2;P2;SDS_P1;SDS_P2;PMS_P1;PMS_P2;Temp;Humidity;BMP_temperature;BMP_pressure;BME280_temperature;BME280_humidity;BME280_pressure;Samples;Min_cycle;Max_cycle;Signal;HPM_P1;HPM_P2
2022/11/04 00:02:13;;;;;;;9.60;6.63;;;11.40;99.90;;;;;;10472078;28;20231;-72
2022/11/04 00:12:32;;;;;;;7.87;5.70;;;11.50;99.90;;;;;;10467442;28;20267;-72
2022/11/04 00:17:33;;;;;;;8.17;5.83;;;11.50;99.90;;;;;;10462945;28;20647;-74
2022/11/04 00:33:30;;;;;;;6.33;5.00;;;11.60;99.90;;;;;;10467239;28;20613;-72
2022/11/04 00:38:30;;;;;;;5.77;4.93;;;11.50;99.90;;;;;;10474561;28;20227;-73
2022/11/04 00:43:31;;;;;;;4.23;3.43;;;11.50;99.90;;;;;;10472276;28;20265;-73
2022/11/04 00:48:31;;;;;;;4.50;3.33;;;11.60;99.90;;;;;;10473555;28;20227;-73
2022/11/04 00:53:32;;;;;;;3.77;2.97;;;11.50;99.90;;;;;;10470153;28;20233;-74
2022/11/04 00:58:32;;;;;;;2.67;2.03;;;11.50;99.90;;;;;;10469613;28;20219;-73
2022/11/04 01:03:33;;;;;;;2.23;1.97;;;11.60;99.90;;;;;;10467585;28;20223;-72
2022/11/04 01:08:34;;;;;;;2.67;1.90;;;11.60;99.90;;;;;;10472644;28;20227;-72
2022/11/04 01:13:35;;;;;;;2.23;1.80;;;11.60;99.90;;;;;;10477491;28;20235;-72
2022/11/04 01:18:36;;;;;;;3.47;1.50;;;11.50;99.90;;;;;;10471367;28;21077;-72
2022/11/04 01:23:37;;;;;;;1.10;1.00;;;11.50;99.90;;;;;;10472554;28;20420;-72
2022/11/04 01:28:38;;;;;;;2.23;1.10;;;11.50;99.90;;;;;;10472544;28;20220;-73
2022/11/04 01:33:39;;;;;;;0.93;0.83;;;11.50;99.90;;;;;;10467855;28;20246;-73
2022/11/04 01:38:40;;;;;;;1.30;1.00;;;11.60;99.90;;;;;;10468451;28;20376;-73
2022/11/04 01:43:53;;;;;;;2.77;0.90;;;11.50;99.90;;;;;;10508120;28;20223;-73
2022/11/04 01:49:03;;;;;;;0.90;0.70;;;11.50;99.90;;;;;;10474886;28;20219;-73
2022/11/04 01:54:05;;;;;;;0.87;0.80;;;11.50;99.90;;;;;;10467663;28;20236;-73
2022/11/04 01:59:11;;;;;;;0.70;0.70;;;11.50;99.90;;;;;;10475380;28;20215;-73
2022/11/04 02:04:25;;;;;;;0.90;0.90;;;11.50;99.90;;;;;;10450866;28;20218;-74
2022/11/04 02:09:28;;;;;;;0.63;0.63;;;11.50;99.90;;;;;;10501576;28;20239;-74
2022/11/04 02:14:31;;;;;;;0.60;0.60;;;11.40;99.90;;;;;;10471650;28;20231;-74
2022/11/04 02:19:47;;;;;;;1.17;0.90;;;11.50;99.90;;;;;;10469954;28;20223;-75
2022/11/04 02:24:59;;;;;;;1.30;0.80;;;11.40;99.90;;;;;;10501463;28;20322;-75
2022/11/04 02:30:18;;;;;;;0.73;0.73;;;11.40;99.90;;;;;;10505806;28;20267;-74
2022/11/04 02:35:25;;;;;;;0.90;0.90;;;11.30;99.90;;;;;;10466276;28;20683;-75
2022/11/04 02:41:02;;;;;;;0.80;0.80;;;11.10;99.90;;;;;;10470380;28;20754;-75
2022/11/04 02:46:26;;;;;;;0.80;0.80;;;11.00;99.90;;;;;;10465034;28;20222;-75
2022/11/04 02:52:13;;;;;;;1.73;1.03;;;10.90;99.90;;;;;;10459189;28;20262;-73
2022/11/04 02:57:20;;;;;;;3.87;1.10;;;10.90;99.90;;;;;;10417604;28;20223;-74
2022/11/04 03:02:47;;;;;;;1.27;0.90;;;10.90;99.90;;;;;;10504176;28;20337;-74
2022/11/04 03:07:52;;;;;;;1.07;0.80;;;10.90;99.90;;;;;;10447634;28;20638;-74
2022/11/04 03:13:12;;;;;;;1.60;0.80;;;10.70;99.90;;;;;;10466824;28;20231;-74
2022/11/04 03:18:22;;;;;;;2.60;0.80;;;10.60;99.90;;;;;;10458369;28;20647;-75
2022/11/04 03:23:23;;;;;;;2.67;0.93;;;10.50;99.90;;;;;;10471241;28;20296;-74
2022/11/04 03:28:49;;;;;;;2.20;1.27;;;10.40;99.90;;;;;;10467878;28;20272;-74
2022/11/04 03:33:52;;;;;;;1.60;0.60;;;10.40;99.90;;;;;;10465379;28;20234;-74
2022/11/04 03:38:52;;;;;;;5.43;1.10;;;10.40;99.90;;;;;;10462733;28;20222;-74
2022/11/04 03:43:53;;;;;;;3.20;1.27;;;10.40;99.90;;;;;;10465932;28;20311;-75
2022/11/04 03:48:54;;;;;;;1.07;0.77;;;10.40;99.90;;;;;;10471111;28;20276;-74
2022/11/04 03:53:56;;;;;;;3.50;1.13;;;10.50;99.90;;;;;;10466087;28;20239;-74
2022/11/04 03:59:11;;;;;;;2.33;1.10;;;10.50;99.90;;;;;;10470460;28;20229;-75
2022/11/04 04:04:31;;;;;;;2.03;1.20;;;10.50;99.90;;;;;;10491564;28;20224;-75
2022/11/04 04:09:43;;;;;;;2.03;1.20;;;10.50;99.90;;;;;;10476540;28;20319;-75
2022/11/04 04:15:20;;;;;;;2.33;1.30;;;10.50;99.90;;;;;;10503743;28;20235;-75
2022/11/04 04:20:25;;;;;;;2.20;1.43;;;10.40;99.90;;;;;;10430475;28;20228;-75
2022/11/04 04:30:51;;;;;;;7.80;1.83;;;10.20;99.90;;;;;;10478743;28;20302;-74
2022/11/04 04:35:54;;;;;;;2.53;1.40;;;10.20;99.90;;;;;;10476666;28;20229;-74
2022/11/04 04:46:22;;;;;;;5.40;1.90;;;10.10;99.90;;;;;;10466237;28;20230;-73
2022/11/04 04:51:24;;;;;;;5.57;2.00;;;10.00;99.90;;;;;;10508881;28;20666;-73
2022/11/04 04:56:24;;;;;;;6.27;1.90;;;10.00;99.90;;;;;;10471882;28;20225;-73
2022/11/04 05:01:25;;;;;;;5.00;1.97;;;9.90;99.90;;;;;;10472144;28;20271;-74
2022/11/04 05:06:26;;;;;;;6.73;2.10;;;9.90;99.90;;;;;;10475994;28;20310;-74
2022/11/04 05:11:26;;;;;;;5.17;1.53;;;9.80;99.90;;;;;;10502757;28;20320;-74
2022/11/04 05:16:27;;;;;;;10.17;2.30;;;9.80;99.90;;;;;;10473731;28;20224;-74
2022/11/04 05:21:31;;;;;;;7.70;1.90;;;9.80;99.90;;;;;;10476473;28;20259;-75
2022/11/04 05:26:31;;;;;;;7.73;1.90;;;9.70;99.90;;;;;;10468940;28;20218;-74
2022/11/04 05:31:32;;;;;;;5.57;1.60;;;9.70;99.90;;;;;;10469415;28;20234;-74
2022/11/04 05:36:33;;;;;;;6.40;1.60;;;9.70;99.90;;;;;;10473243;28;20225;-74
2022/11/04 05:41:33;;;;;;;6.20;1.43;;;9.70;99.90;;;;;;10501264;28;20227;-75
2022/11/04 05:46:34;;;;;;;5.63;1.80;;;9.60;99.90;;;;;;10504652;28;20574;-74
2022/11/04 05:51:35;;;;;;;6.77;1.90;;;9.70;99.90;;;;;;10467595;28;20332;-75
2022/11/04 05:56:35;;;;;;;6.63;1.67;;;9.70;99.90;;;;;;10471866;28;20309;-75
2022/11/04 06:01:38;;;;;;;7.47;1.90;;;9.70;99.90;;;;;;10467394;28;20686;-75
2022/11/04 06:06:38;;;;;;;6.20;1.77;;;9.70;99.90;;;;;;10467341;28;20219;-75
2022/11/04 06:11:39;;;;;;;4.73;1.63;;;9.80;99.90;;;;;;10467155;28;20266;-75
2022/11/04 06:16:40;;;;;;;9.07;1.67;;;9.90;99.90;;;;;;10471201;28;20226;-77
2022/11/04 06:21:40;;;;;;;5.87;1.77;;;9.90;99.90;;;;;;10503620;28;20219;-75
2022/11/04 06:26:41;;;;;;;7.60;1.70;;;10.00;99.90;;;;;;10474944;28;20234;-74
2022/11/04 06:31:41;;;;;;;4.50;1.53;;;10.10;99.90;;;;;;10471827;28;20761;-75
2022/11/04 06:36:42;;;;;;;6.17;1.50;;;10.10;99.90;;;;;;10466652;28;20710;-74
2022/11/04 06:41:45;;;;;;;5.20;1.60;;;10.20;99.90;;;;;;10465897;28;20222;-74
2022/11/04 06:46:46;;;;;;;4.67;1.90;;;10.20;99.90;;;;;;10466091;28;20662;-75
2022/11/04 06:51:47;;;;;;;3.67;1.70;;;10.30;99.90;;;;;;10468381;28;20234;-75
2022/11/04 06:56:48;;;;;;;5.70;1.80;;;10.30;99.90;;;;;;10468274;28;20315;-75
2022/11/04 07:01:49;;;;;;;6.60;2.10;;;10.40;99.90;;;;;;10469410;28;20227;-75
2022/11/04 07:06:50;;;;;;;3.83;1.80;;;10.50;99.90;;;;;;10464843;28;20245;-74
2022/11/04 07:11:50;;;;;;;3.63;1.57;;;10.60;99.90;;;;;;10461555;28;20238;-74
2022/11/04 07:16:51;;;;;;;6.67;1.63;;;10.60;99.90;;;;;;10471469;28;20246;-74
2022/11/04 07:21:51;;;;;;;6.83;1.60;;;10.70;99.90;;;;;;10465207;28;20424;-74
2022/11/04 07:26:54;;;;;;;7.07;1.33;;;10.80;99.90;;;;;;10458199;28;20220;-74
2022/11/04 07:31:54;;;;;;;10.40;1.87;;;11.00;99.90;;;;;;10465376;28;20243;-74
2022/11/04 07:36:55;;;;;;;5.17;1.80;;;11.00;99.90;;;;;;10470557;28;20226;-73
2022/11/04 07:41:55;;;;;;;2.83;1.03;;;11.10;99.90;;;;;;10473125;28;20215;-74
2022/11/04 07:46:56;;;;;;;5.93;1.57;;;11.10;99.90;;;;;;10474033;28;20641;-75
2022/11/04 07:51:56;;;;;;;4.53;1.40;;;11.10;99.90;;;;;;10512728;28;20984;-74
2022/11/04 07:56:57;;;;;;;8.57;1.70;;;11.20;99.90;;;;;;10472994;28;20289;-74
2022/11/04 08:01:58;;;;;;;4.60;1.60;;;11.20;99.90;;;;;;10479606;28;20272;-75
2022/11/04 08:06:58;;;;;;;6.73;1.50;;;11.30;99.90;;;;;;10474363;28;20226;-75
2022/11/04 08:11:59;;;;;;;10.67;2.03;;;11.30;99.90;;;;;;10512340;28;20630;-75
2022/11/04 08:16:59;;;;;;;4.53;1.30;;;11.30;99.90;;;;;;10472470;28;20266;-74
2022/11/04 08:22:00;;;;;;;2.70;1.20;;;11.40;99.90;;;;;;10479054;28;20235;-74
2022/11/04 08:27:01;;;;;;;4.70;1.60;;;11.50;99.90;;;;;;10504533;28;20227;-75
2022/11/04 08:32:01;;;;;;;4.10;1.20;;;11.70;99.90;;;;;;10479186;28;20226;-75
2022/11/04 08:37:02;;;;;;;3.87;1.63;;;11.90;99.90;;;;;;10461492;28;20216;-75
2022/11/04 08:42:03;;;;;;;6.13;1.80;;;12.20;99.90;;;;;;10478946;28;20586;-74
2022/11/04 08:47:03;;;;;;;4.53;1.70;;;12.30;99.90;;;;;;10471672;28;20783;-75
2022/11/04 08:52:05;;;;;;;4.10;1.40;;;12.40;99.90;;;;;;10508672;28;20227;-75
2022/11/04 08:57:07;;;;;;;2.93;1.30;;;12.50;99.90;;;;;;10470147;28;20215;-75
2022/11/04 09:02:12;;;;;;;3.27;1.50;;;12.80;99.90;;;;;;10470524;28;20220;-75
2022/11/04 09:07:13;;;;;;;4.67;1.30;;;13.30;99.90;;;;;;10470217;28;20302;-74
2022/11/04 09:12:13;;;;;;;5.23;1.77;;;13.70;99.90;;;;;;10472248;28;20322;-75
2022/11/04 09:17:14;;;;;;;3.50;1.50;;;13.80;99.90;;;;;;10473154;28;20302;-74
2022/11/04 09:22:14;;;;;;;6.10;1.80;;;13.70;99.90;;;;;;10469889;28;20314;-74
2022/11/04 09:27:15;;;;;;;6.43;1.60;;;13.60;99.90;;;;;;10470533;28;20223;-75
2022/11/04 09:32:16;;;;;;;5.00;1.40;;;13.90;99.90;;;;;;10476882;28;20318;-75
2022/11/04 09:37:16;;;;;;;2.90;1.70;;;14.90;99.90;;;;;;10470258;28;20215;-75
2022/11/04 09:42:31;;;;;;;5.33;1.63;;;15.30;99.90;;;;;;10467794;28;20223;-75
2022/11/04 09:47:34;;;;;;;3.90;1.47;;;16.40;99.90;;;;;;10472649;28;20744;-75
2022/11/04 09:52:43;;;;;;;5.60;1.90;;;18.10;99.90;;;;;;10472673;28;20267;-75
2022/11/04 09:57:54;;;;;;;3.33;1.47;;;18.70;99.90;;;;;;10468400;28;20240;-75
2022/11/04 10:03:11;;;;;;;4.93;1.70;;;19.70;99.90;;;;;;10474378;28;20218;-75
2022/11/04 10:08:35;;;;;;;7.07;1.50;;;19.70;99.90;;;;;;10460757;28;20235;-74
2022/11/04 10:14:07;;;;;;;4.80;1.40;;;19.80;99.90;;;;;;10463600;28;20712;-74
2022/11/04 10:19:26;;;;;;;2.43;1.10;;;21.00;99.90;;;;;;10459050;28;20216;-73
2022/11/04 10:24:41;;;;;;;2.70;1.23;;;22.30;96.50;;;;;;10460935;28;20297;-74
2022/11/04 10:29:44;;;;;;;3.83;1.47;;;22.00;94.40;;;;;;10470423;28;20700;-74
2022/11/04 10:34:56;;;;;;;4.57;1.67;;;22.50;94.50;;;;;;10464405;28;20295;-74
2022/11/04 10:40:13;;;;;;;5.23;1.60;;;23.70;88.00;;;;;;10468583;28;20317;-74
2022/11/04 10:45:14;;;;;;;5.60;1.80;;;22.30;88.50;;;;;;10458874;28;20216;-74
2022/11/04 10:50:33;;;;;;;6.37;1.47;;;21.20;92.00;;;;;;10506529;28;20698;-74
2022/11/04 10:56:03;;;;;;;6.33;1.70;;;20.10;93.70;;;;;;10461899;28;20590;-74
2022/11/04 11:01:24;;;;;;;5.00;1.70;;;18.60;96.60;;;;;;10454815;28;20212;-74
2022/11/04 11:06:24;;;;;;;4.47;1.70;;;17.60;99.40;;;;;;10443814;28;20216;-74
2022/11/04 11:11:46;;;;;;;5.70;1.50;;;17.20;99.90;;;;;;10498090;28;20319;-73
2022/11/04 11:16:47;;;;;;;6.70;1.50;;;16.80;99.90;;;;;;10459006;28;20203;-73
2022/11/04 11:21:55;;;;;;;3.90;1.40;;;17.20;99.90;;;;;;10471354;28;20216;-75
2022/11/04 11:26:58;;;;;;;3.03;1.43;;;17.60;99.90;;;;;;10466840;28;20268;-75
2022/11/04 11:32:02;;;;;;;6.93;1.70;;;17.80;99.90;;;;;;10473416;28;20237;-75
2022/11/04 11:37:04;;;;;;;5.20;1.50;;;17.70;99.90;;;;;;10472657;28;20755;-75
2022/11/04 11:42:16;;;;;;;7.70;1.67;;;17.60;99.90;;;;;;10464428;28;20223;-75
2022/11/04 11:47:20;;;;;;;4.27;1.57;;;17.20;99.90;;;;;;10458173;28;20286;-75
2022/11/04 11:52:38;;;;;;;6.20;1.97;;;16.70;99.90;;;;;;10473000;28;20267;-74
2022/11/04 11:58:07;;;;;;;5.10;1.57;;;16.40;99.90;;;;;;10500970;28;20289;-74
2022/11/04 12:03:39;;;;;;;6.57;1.70;;;16.70;99.90;;;;;;10472139;28;20219;-74
2022/11/04 12:09:04;;;;;;;3.70;1.33;;;17.00;99.90;;;;;;10498055;28;20311;-74
2022/11/04 12:14:20;;;;;;;6.87;1.90;;;16.90;99.90;;;;;;10465171;28;20332;-74
2022/11/04 12:19:46;;;;;;;4.30;1.63;;;16.70;99.90;;;;;;10457562;28;20304;-75
2022/11/04 12:24:55;;;;;;;4.83;1.60;;;16.40;99.90;;;;;;10468058;28;20243;-74
2022/11/04 12:30:05;;;;;;;7.77;2.33;;;16.40;99.90;;;;;;10502739;28;20216;-74
2022/11/04 12:35:25;;;;;;;5.50;1.83;;;16.30;99.90;;;;;;10479149;28;20211;-74
2022/11/04 12:40:28;;;;;;;2.27;1.17;;;16.20;99.90;;;;;;10471306;28;20218;-74
2022/11/04 12:45:56;;;;;;;5.70;1.70;;;16.10;99.90;;;;;;10479225;28;20235;-74
2022/11/04 12:51:21;;;;;;;6.67;1.70;;;16.00;99.90;;;;;;10470492;28;20581;-75
2022/11/04 12:56:36;;;;;;;5.13;1.77;;;15.90;99.90;;;;;;10462830;28;20802;-75
2022/11/04 13:01:45;;;;;;;8.47;1.80;;;15.90;99.90;;;;;;10506848;28;20223;-74
2022/11/04 13:06:53;;;;;;;3.43;1.30;;;16.10;99.90;;;;;;10475216;28;20247;-75
2022/11/04 13:12:02;;;;;;;4.27;1.10;;;16.30;99.90;;;;;;10469868;28;20233;-74
2022/11/04 13:17:06;;;;;;;3.77;1.50;;;16.10;99.90;;;;;;10507195;28;20216;-75
2022/11/04 13:22:19;;;;;;;4.07;1.40;;;16.00;99.90;;;;;;10497565;28;20227;-75
2022/11/04 13:27:29;;;;;;;7.77;1.90;;;16.00;99.90;;;;;;10470464;28;20219;-74
2022/11/04 13:33:20;;;;;;;4.83;1.47;;;16.20;99.90;;;;;;10470249;28;20322;-75
2022/11/04 13:38:32;;;;;;;3.97;1.23;;;16.30;99.90;;;;;;10452298;28;20335;-75
2022/11/04 13:43:38;;;;;;;6.37;1.90;;;16.10;99.90;;;;;;10473447;28;20219;-75
2022/11/04 13:48:54;;;;;;;3.33;1.57;;;15.90;99.90;;;;;;10501662;28;20243;-74
2022/11/04 13:53:56;;;;;;;8.83;1.97;;;15.80;99.90;;;;;;10468400;28;20261;-74
2022/11/04 13:59:24;;;;;;;6.20;1.90;;;15.70;99.90;;;;;;10476647;28;20743;-74
2022/11/04 14:04:30;;;;;;;4.67;1.70;;;15.60;99.90;;;;;;10470263;28;20230;-74
2022/11/04 14:09:42;;;;;;;9.13;2.10;;;15.60;99.90;;;;;;10469030;28;20313;-75
2022/11/04 14:14:51;;;;;;;4.37;1.80;;;15.30;99.90;;;;;;10502595;28;20599;-74
2022/11/04 14:19:54;;;;;;;5.13;1.97;;;15.10;99.90;;;;;;10471274;28;20947;-75
2022/11/04 14:25:01;;;;;;;5.37;1.90;;;15.00;99.90;;;;;;10475067;28;20225;-74
2022/11/04 14:30:06;;;;;;;6.47;1.80;;;14.80;99.90;;;;;;10467543;28;20269;-75
2022/11/04 14:35:17;;;;;;;3.37;1.50;;;14.70;99.90;;;;;;10466977;28;20216;-75
2022/11/04 14:40:45;;;;;;;6.17;2.20;;;14.50;99.90;;;;;;10453092;28;20176;-74
2022/11/04 14:45:45;;;;;;;3.90;1.70;;;14.50;99.90;;;;;;10485448;28;20766;-74
2022/11/04 14:50:51;;;;;;;5.13;2.20;;;14.40;99.90;;;;;;10460634;28;20317;-74
2022/11/04 14:56:14;;;;;;;4.20;1.50;;;14.30;99.90;;;;;;10469199;28;20214;-75
2022/11/04 15:01:15;;;;;;;8.43;2.20;;;14.30;99.90;;;;;;10456694;28;20215;-75
2022/11/04 15:06:23;;;;;;;7.17;1.73;;;14.30;99.90;;;;;;10504540;28;20229;-74
2022/11/04 15:16:53;;;;;;;5.03;1.60;;;14.10;99.90;;;;;;10464234;28;20219;-75
2022/11/04 15:21:54;;;;;;;3.87;1.33;;;13.90;99.90;;;;;;10504881;28;20257;-75
2022/11/04 15:27:00;;;;;;;3.37;1.50;;;13.60;99.90;;;;;;10457973;28;20261;-75
2022/11/04 15:32:02;;;;;;;5.70;1.80;;;13.40;99.90;;;;;;10472126;28;20262;-74
2022/11/04 15:37:04;;;;;;;7.97;1.70;;;13.20;99.90;;;;;;10465237;28;20345;-74
2022/11/04 15:47:36;;;;;;;5.77;1.43;;;12.70;99.90;;;;;;10463569;28;20635;-75
2022/11/04 15:52:36;;;;;;;3.50;1.73;;;12.40;99.90;;;;;;10468427;28;20220;-73
2022/11/04 15:57:38;;;;;;;6.73;1.93;;;12.20;99.90;;;;;;10472601;28;20776;-74
2022/11/04 16:02:49;;;;;;;4.27;2.10;;;12.00;99.90;;;;;;10469967;28;20238;-73
2022/11/04 16:07:52;;;;;;;6.07;2.70;;;11.80;99.90;;;;;;10478637;28;20249;-73
2022/11/04 16:13:01;;;;;;;11.10;2.77;;;11.60;99.90;;;;;;10471692;28;20234;-75
2022/11/04 16:18:04;;;;;;;5.90;2.60;;;11.40;99.90;;;;;;10472707;28;20254;-74
2022/11/04 16:23:04;;;;;;;3.20;1.70;;;11.30;99.90;;;;;;10470549;28;20677;-75
2022/11/04 16:28:06;;;;;;;5.63;2.43;;;11.10;99.90;;;;;;10479718;28;20227;-74
2022/11/04 16:33:09;;;;;;;4.30;2.10;;;11.00;99.90;;;;;;10472826;28;20222;-75
2022/11/04 16:38:09;;;;;;;6.27;2.47;;;10.80;99.90;;;;;;10472045;28;20276;-74
2022/11/04 16:43:11;;;;;;;8.67;4.47;;;10.80;99.90;;;;;;10465154;28;20227;-73
2022/11/04 16:48:19;;;;;;;18.13;9.70;;;10.70;99.90;;;;;;10470614;28;20228;-74
2022/11/04 16:53:19;;;;;;;26.77;13.17;;;10.60;99.90;;;;;;10475355;28;20230;-74
2022/11/04 16:58:21;;;;;;;12.30;6.73;;;10.50;99.90;;;;;;10470990;28;20768;-74
2022/11/04 17:03:22;;;;;;;7.00;3.73;;;10.50;99.90;;;;;;10511638;28;20220;-76
2022/11/04 17:08:24;;;;;;;9.93;3.47;;;10.50;99.90;;;;;;10476329;28;20238;-75
2022/11/04 17:13:25;;;;;;;6.00;3.17;;;10.50;99.90;;;;;;10469514;28;20686;-74
2022/11/04 17:18:28;;;;;;;4.57;2.50;;;10.60;99.90;;;;;;10485266;28;20215;-75
2022/11/04 17:23:29;;;;;;;6.70;2.53;;;10.70;99.90;;;;;;10472918;28;20230;-76
2022/11/04 17:28:31;;;;;;;8.13;2.60;;;10.70;99.90;;;;;;10468790;28;20227;-73
2022/11/04 17:33:32;;;;;;;5.10;3.13;;;10.70;99.90;;;;;;10471933;28;20567;-75
2022/11/04 17:38:33;;;;;;;8.23;3.80;;;10.80;99.90;;;;;;10505498;28;20226;-74
2022/11/04 17:48:52;;;;;;;11.90;7.03;;;11.00;99.90;;;;;;10471031;28;20738;-74
2022/11/04 17:53:53;;;;;;;6.67;4.63;;;11.10;99.90;;;;;;10467470;28;20310;-75
2022/11/04 17:58:54;;;;;;;9.00;5.00;;;11.00;99.90;;;;;;10470462;28;20222;-75
2022/11/04 18:03:55;;;;;;;8.90;4.80;;;11.00;99.90;;;;;;10467259;28;20226;-74
2022/11/04 18:08:56;;;;;;;8.13;4.77;;;10.90;99.90;;;;;;10474427;28;20222;-75
2022/11/04 18:13:56;;;;;;;7.20;4.53;;;10.70;99.90;;;;;;10469400;28;20604;-75
2022/11/04 18:18:58;;;;;;;4.50;3.50;;;10.70;99.90;;;;;;10472125;28;20280;-75
2022/11/04 18:23:58;;;;;;;7.40;4.30;;;10.60;99.90;;;;;;10484475;28;20226;-74
2022/11/04 18:29:00;;;;;;;8.40;5.27;;;10.60;99.90;;;;;;10474334;28;20219;-75
2022/11/04 18:34:06;;;;;;;6.47;4.07;;;10.60;99.90;;;;;;10468166;28;20238;-74
2022/11/04 18:39:09;;;;;;;8.17;5.40;;;10.60;99.90;;;;;;10467131;28;20215;-74
2022/11/04 18:44:19;;;;;;;16.87;11.27;;;10.70;99.90;;;;;;10452218;28;20249;-75
2022/11/04 18:49:19;;;;;;;10.17;6.97;;;10.70;99.90;;;;;;10472416;28;20223;-75
2022/11/04 18:54:20;;;;;;;8.87;5.50;;;10.80;99.90;;;;;;10466128;28;20227;-75
2022/11/04 18:59:20;;;;;;;8.37;4.43;;;10.80;99.90;;;;;;10504039;28;20215;-74
2022/11/04 19:04:22;;;;;;;8.40;4.87;;;10.90;99.90;;;;;;10488125;28;20231;-74
2022/11/04 19:09:23;;;;;;;9.40;5.40;;;10.90;99.90;;;;;;10469934;28;20268;-74
2022/11/04 19:14:24;;;;;;;11.00;6.27;;;11.00;99.90;;;;;;10465700;28;20241;-75
2022/11/04 19:19:24;;;;;;;7.93;4.60;;;11.00;99.90;;;;;;10505227;28;20211;-74
2022/11/04 19:24:27;;;;;;;6.80;4.13;;;11.10;99.90;;;;;;10468452;28;20238;-75
2022/11/04 19:29:28;;;;;;;6.53;3.80;;;11.10;99.90;;;;;;10463193;28;20665;-74
2022/11/04 19:34:28;;;;;;;10.43;6.17;;;11.00;99.90;;;;;;10461263;28;20223;-75
2022/11/04 19:39:29;;;;;;;8.93;4.20;;;11.00;99.90;;;;;;10469034;28;20212;-75
2022/11/04 19:44:31;;;;;;;9.00;5.00;;;11.00;99.90;;;;;;10465465;28;20222;-75
2022/11/04 19:49:31;;;;;;;8.87;4.23;;;10.90;99.90;;;;;;10467497;28;20220;-75
2022/11/04 19:54:32;;;;;;;6.57;4.20;;;10.90;99.90;;;;;;10468428;28;20229;-75
2022/11/04 19:59:32;;;;;;;9.93;4.33;;;10.90;99.90;;;;;;10496252;28;20294;-75
2022/11/04 20:04:36;;;;;;;7.23;4.10;;;10.90;99.90;;;;;;10467229;28;20332;-74
2022/11/04 20:09:36;;;;;;;4.93;3.80;;;10.90;99.90;;;;;;10500836;28;20225;-74
2022/11/04 20:14:37;;;;;;;9.00;4.33;;;10.90;99.90;;;;;;10466133;28;20244;-74
2022/11/04 20:19:37;;;;;;;10.30;5.17;;;10.90;99.90;;;;;;10468786;28;20816;-74
2022/11/04 20:24:38;;;;;;;6.73;4.87;;;10.80;99.90;;;;;;10499983;28;20664;-74
2022/11/04 20:29:38;;;;;;;8.43;5.30;;;10.80;99.90;;;;;;10467907;28;20227;-75
2022/11/04 20:34:42;;;;;;;7.73;5.10;;;10.80;99.90;;;;;;10464941;28;20219;-74
2022/11/04 20:39:43;;;;;;;8.10;5.00;;;10.80;99.90;;;;;;10464395;28;20268;-73
2022/11/04 20:44:43;;;;;;;7.23;4.97;;;10.80;99.90;;;;;;10465135;28;20273;-74
2022/11/04 20:49:48;;;;;;;7.63;5.10;;;10.80;99.90;;;;;;10456078;28;20242;-74
2022/11/04 20:54:48;;;;;;;9.37;5.70;;;10.80;99.90;;;;;;10471404;28;20246;-74
2022/11/04 20:59:49;;;;;;;9.20;6.20;;;10.70;99.90;;;;;;10470099;28;20703;-74
2022/11/04 21:04:50;;;;;;;8.20;5.33;;;10.70;99.90;;;;;;10474808;28;20301;-75
2022/11/04 21:09:51;;;;;;;9.63;5.70;;;10.60;99.90;;;;;;10471190;28;20254;-74
2022/11/04 21:14:51;;;;;;;10.03;6.37;;;10.50;99.90;;;;;;10474751;28;20226;-72
2022/11/04 21:19:52;;;;;;;11.07;6.30;;;10.40;99.90;;;;;;10470718;28;20614;-72
2022/11/04 21:24:53;;;;;;;9.00;5.90;;;10.40;99.90;;;;;;10473568;28;20214;-73
2022/11/04 21:29:54;;;;;;;7.60;5.83;;;10.40;99.90;;;;;;10468062;28;20222;-72
2022/11/04 21:34:54;;;;;;;11.83;6.20;;;10.30;99.90;;;;;;10470166;28;20267;-73
2022/11/04 21:39:58;;;;;;;8.10;5.93;;;10.30;99.90;;;;;;10464930;28;20214;-72
2022/11/04 21:44:58;;;;;;;8.30;6.03;;;10.30;99.90;;;;;;10470969;28;20222;-72
2022/11/04 21:50:02;;;;;;;10.47;6.47;;;10.30;99.90;;;;;;10469944;28;20685;-73
2022/11/04 21:55:06;;;;;;;10.40;6.40;;;10.30;99.90;;;;;;10467233;28;20281;-72
2022/11/04 22:00:09;;;;;;;10.20;7.20;;;10.20;99.90;;;;;;10474517;28;20631;-72
2022/11/04 22:05:10;;;;;;;7.93;6.20;;;10.20;99.90;;;;;;10458326;28;20202;-73
2022/11/04 22:10:11;;;;;;;7.93;6.03;;;10.30;99.90;;;;;;10474364;28;20892;-73
2022/11/04 22:15:11;;;;;;;9.70;6.87;;;10.20;99.90;;;;;;10465349;28;20203;-72
2022/11/04 22:20:15;;;;;;;7.77;5.73;;;10.30;99.90;;;;;;10506022;28;20285;-71
2022/11/04 22:25:15;;;;;;;7.80;6.07;;;10.30;99.90;;;;;;10497612;28;20183;-73
2022/11/04 22:30:16;;;;;;;7.80;7.00;;;10.40;99.90;;;;;;10464774;28;20203;-71
2022/11/04 22:35:16;;;;;;;7.30;6.07;;;10.40;99.90;;;;;;10470552;28;20207;-72
2022/11/04 22:40:17;;;;;;;6.73;5.63;;;10.40;99.90;;;;;;10462231;28;20179;-71
2022/11/04 22:45:17;;;;;;;8.23;5.70;;;10.50;99.90;;;;;;10464383;28;20192;-73
2022/11/04 22:50:18;;;;;;;10.43;5.53;;;10.40;99.90;;;;;;10471847;28;20216;-73
2022/11/04 22:55:18;;;;;;;6.83;5.83;;;10.40;99.90;;;;;;10464069;28;20325;-72
2022/11/04 23:00:19;;;;;;;8.17;5.70;;;10.40;99.90;;;;;;10465153;28;20184;-72
2022/11/04 23:05:20;;;;;;;9.30;5.70;;;10.40;99.90;;;;;;10471185;28;20175;-73
2022/11/04 23:26:34;;;;;;;11.50;5.53;;;10.30;99.90;;;;;;10441020;28;20687;-72
2022/11/04 23:31:35;;;;;;;7.73;6.27;;;10.30;99.90;;;;;;10467130;28;20227;-72
